Cosmos, Minnesota
Current Conditions -  °F | °C
As of 9:12 PM on Friday 21 Nov 2014 (Local Time) from KLJF Reporting Station
Clear Clear  
Wind Chill: 23°   Ceiling: Unl
Heat Index: 28°   Visibility: 10mi
Dew Point: 27°   Wind: 5mph
Humidity: 93%   Direction: 180°S
Pressure: 29.85"   Gusts: NA
Location:  44.94°N, 94.7°W
Report Text: KLJF 220312Z AUTO 18004KT 10SM CLR M02/M03 A2985 RMK AO2
Loading
Personal Weather Stations






























Interactive Weather Map New forecast layout! Learn more

10-Day Weather Forecast

Advertisements
Track Severe Weather on mobile